AirNav   Everest Fuels
 
 831 users online  

8GA8 Falcons Aerie Airport
Carrollton, Georgia, USA

GOING TO CARROLLTON?


FAA INFORMATION EFFECTIVE 21 MAY 2020

Location

FAA Identifier: 8GA8
Lat/Long: 33-34-38.3980N 085-00-10.7930W
33-34.639967N 085-00.179883W
33.5773328,-85.0029981
(estimated)
Elevation: 1180 ft. / 360 m (estimated)
Variation: 02W (1990)
From city: 5 miles E of CARROLLTON, GA
Time zone: UTC -4 (UTC -5 during Standard Time)
Zip code: 30116

Airport Operations

Airport use: Private use. Permission required prior to landing
Activation date: 03/1992
Control tower: no
ARTCC: ATLANTA CENTER
FSS: MACON FLIGHT SERVICE STATION
Attendance: IREG
Wind indicator: yes
Segmented circle: no

Airport Communications

WX AWOS-3 at CTJ (8 nm NW): 118.175 (770-214-9667)
WX AWOS-3PT at CCO (20 nm SE): 118.975 (770-254-1617)

Nearby radio navigation aids

VOR radial/distance  VOR name  Freq  Var
ATLr269/28.6ATLANTA VORTAC116.9005W
LGCr017/33.3LAGRANGE VORTAC115.6001E
RMGr170/35.6ROME VORTAC115.4001E
PDKr248/39.4PEACHTREE VOR/DME116.6005W

 
NDB name  Hdg/Dist  Freq  Var  ID
CARROLLTON088/6.427804WGPQ --. .--. --.-
COWETA COUNTY326/24.123403WEQQ . --.- --.-
PECAT308/30.731605WFFC ..-. ..-. -.-.
CARTERSVILLE196/38.130804WEVZ . ...- --..

Airport Services

Runway Information

Runway 17/35

Dimensions: 2000 x 60 ft. / 610 x 18 m
Surface: turf
RUNWAY 17  RUNWAY 35
Traffic pattern: leftleft

Airport Ownership and Management from official FAA records

Ownership: Privately-owned
Owner: BART STONE
1451 HORSLEY MILL RD
CARROLLTON, GA 30117
Phone (770) 617-4566

Airport Operational Statistics

Aircraft based on the field: 1
Single engine airplanes: 1
    

Additional Remarks

FOR CD CTC ATLANTA APCH AT 678-364-6131.

Instrument Procedures

There are no published instrument procedures at 8GA8.

Some nearby airports with instrument procedures:

KCTJ - West Georgia Regional Airport-O V Gray Field (8 nm NW)
KCCO - Newnan Coweta County Airport (20 nm SE)
KPUJ - Paulding Northwest Atlanta Airport (20 nm N)
KFFC - Atlanta Regional Airport-Falcon Field (25 nm SE)
KFTY - Fulton County Airport-Brown Field (27 nm NE)
 
Loc | Ops | Rwys | IFR | FBO | Links
Com | Nav | Svcs | Stats | Notes
Area around 8GA8 (Falcons Aerie Airport)
 
Road maps at: MapQuest Bing Google
 
Aerial photo
No photo
 
Sectional chart

 
Airport distance calculator
Flying to Falcons Aerie Airport? Find the distance to fly.

From to 8GA8

Sunrise and sunset
Times for 02-Jun-2020
 Local
(UTC-4)
 Zulu
(UTC)
Morning civil twilight06:0310:03
Sunrise06:3110:31
Sunset20:4500:45
Evening civil twilight21:1401:14

Current date and time
Zulu (UTC)  03-Jun-2020 03:32:55
Local (UTC-4)  02-Jun-2020 23:32:55
 
METAR
KCTJ 
8nm NW 
030315Z AUTO 00000KT 10SM CLR 20/18 A3018 RMK AO2 T01990179
KCCO 
20nm SE 
030315Z AUTO 00000KT 10SM CLR 23/21 A3014 RMK AO2 T02280208
TAF
KFTY 
27nm NE 
021726Z 0218/0318 22006KT P6SM SCT050 SCT250 FM030100 21003KT P6SM FEW150 SCT250 FM031100 26005KT P6SM SCT040 SCT250 FM031600 27006KT P6SM SCT050 BKN250
KATL 
28nm E 
030222Z 0302/0406 20004KT P6SM FEW150 SCT250 FM031100 24004KT P6SM SCT040 SCT250 FM031500 26006KT P6SM SCT050 BKN250 FM031700 24007KT P6SM VCSH BKN050 BKN250 FM040100 23005KT P6SM SCT050 BKN150
KMGE 
32nm NE 
022100Z 0221/0403 VRB05KT 9999 BKN050 BKN250 QNH3010INS BECMG 0302/0303 VRB05KT 9999 SCT250 QNH3005INS BECMG 0314/0315 27009KT 9999 BKN040 BKN250 QNH2994INS TX31/0321Z TN19/0311Z
KRYY 
33nm NE 
021726Z 0218/0318 21008KT P6SM SCT050 SCT250 FM030100 22003KT P6SM FEW150 SCT250 FM031100 26005KT P6SM SCT040 SCT250 FM031600 27006KT P6SM SCT050 BKN250
NOTAMs
Click for the latest NOTAMs
NOTAMs are issued by the DoD/FAA and will open in a separate window not controlled by AirNav.

 

 
 

Would you like to see your business listed on this page?

 If your business provides an interesting product or service to pilots, flight crews, aircraft, or users of the Falcons Aerie Airport, you should consider listing it here.  To start the listing process, click on the button below
 
Add a business
 

Other Pages about Falcons Aerie Airport

Update a link
 
Copyright © AirNav, LLC. All rights reserved. Privacy Policy  Contact